createdAt,value
2022-12-23T00:00:32.459Z,81.97
2022-12-23T00:03:00.875Z,84.95
2022-12-23T00:05:35.751Z,86.45
2022-12-23T00:08:07.189Z,88.43
2022-12-23T00:10:39.694Z,92.82
2022-12-23T00:13:28.177Z,82.55
2022-12-23T00:16:22.707Z,85.88
2022-12-23T00:18:52.485Z,84.40
2022-12-23T00:21:21.232Z,84.20
2022-12-23T00:23:50.909Z,80.80
2022-12-23T00:26:22.647Z,84.45
2022-12-23T00:28:51.452Z,83.30
2022-12-23T00:31:21.372Z,85.88
2022-12-23T00:33:54.380Z,90.57
2022-12-23T00:36:28.150Z,82.90
2022-12-23T00:39:16.296Z,89.00
2022-12-23T00:42:03.678Z,87.15
2022-12-23T00:44:32.434Z,85.38
2022-12-23T00:47:00.649Z,83.60
2022-12-23T00:49:44.234Z,90.53
2022-12-23T00:54:41.965Z,82.25
2022-12-23T00:57:10.505Z,79.68
2022-12-23T00:59:38.771Z,90.63
2022-12-23T01:02:27.354Z,89.18
2022-12-23T01:05:15.643Z,71.97
2022-12-23T01:07:43.859Z,85.38
2022-12-23T01:10:12.180Z,82.05
2022-12-23T01:12:40.524Z,79.60
2022-12-23T01:15:09.080Z,79.88
2022-12-23T01:17:37.497Z,84.70
2022-12-23T01:20:06.256Z,79.82
2022-12-23T01:22:34.485Z,77.88
2022-12-23T01:25:02.893Z,85.00
2022-12-23T01:27:31.055Z,76.60
2022-12-23T01:29:59.276Z,74.68
2022-12-23T01:32:27.480Z,76.32
2022-12-23T01:34:55.741Z,74.97
2022-12-23T01:37:24.082Z,71.28
2022-12-23T01:39:52.285Z,76.65
2022-12-23T01:42:40.202Z,75.88
2022-12-23T01:45:20.444Z,67.00
2022-12-23T01:47:59.019Z,70.60
2022-12-23T01:50:35.054Z,76.15
2022-12-23T01:53:16.929Z,76.20
2022-12-23T01:55:57.175Z,78.07
2022-12-23T01:58:34.042Z,77.35
2022-12-23T02:01:21.792Z,70.25
2022-12-23T02:03:53.342Z,70.40
2022-12-23T02:06:47.620Z,65.30
2022-12-23T02:09:19.561Z,66.38
2022-12-23T02:11:56.619Z,72.05
2022-12-23T02:14:49.634Z,62.35
2022-12-23T02:17:29.060Z,63.93
2022-12-23T02:20:27.953Z,65.35
2022-12-23T02:23:10.129Z,74.63
2022-12-23T02:26:02.533Z,72.78
2022-12-23T02:28:59.341Z,68.15
2022-12-23T02:31:47.474Z,67.07
2022-12-23T02:34:52.818Z,66.05
2022-12-23T02:37:32.669Z,67.13
2022-12-23T02:40:26.455Z,69.18
2022-12-23T02:45:36.542Z,59.22
2022-12-23T02:48:41.785Z,57.30
2022-12-23T02:51:14.088Z,58.70
2022-12-23T02:53:54.626Z,59.05
2022-12-23T02:56:26.111Z,64.38
2022-12-23T02:58:58.551Z,57.30
2022-12-23T03:01:29.373Z,59.23
2022-12-23T03:03:57.695Z,57.25
2022-12-23T03:06:41.377Z,56.00
2022-12-23T03:09:13.904Z,55.05
2022-12-23T03:11:59.492Z,52.47
2022-12-23T03:14:51.298Z,50.58
2022-12-23T03:17:31.841Z,52.55
2022-12-23T03:20:14.753Z,50.58
2022-12-23T03:23:23.164Z,45.78
2022-12-23T03:26:09.152Z,47.08
2022-12-23T03:28:44.637Z,46.20
2022-12-23T03:31:18.398Z,45.95
2022-12-23T03:33:53.956Z,43.10
2022-12-23T03:36:29.268Z,41.00
2022-12-23T03:38:59.129Z,38.47
2022-12-23T03:41:39.336Z,41.13
2022-12-23T03:44:14.016Z,38.97
2022-12-23T03:46:52.693Z,48.60
2022-12-23T03:49:29.106Z,42.97
2022-12-23T03:52:03.387Z,43.67
2022-12-23T03:54:40.032Z,42.15
2022-12-23T03:57:10.386Z,38.90
2022-12-23T03:59:52.148Z,40.10
2022-12-23T04:02:32.834Z,46.75
2022-12-23T04:05:18.734Z,41.22
2022-12-23T04:08:01.876Z,46.97
2022-12-23T04:10:31.450Z,42.22
2022-12-23T04:12:59.777Z,46.08
2022-12-23T04:15:29.007Z,52.60
2022-12-23T04:17:58.206Z,56.35
2022-12-23T04:20:26.550Z,50.33
2022-12-23T04:22:54.761Z,62.10
2022-12-23T04:25:22.972Z,59.70
2022-12-23T04:27:51.209Z,59.03
2022-12-23T04:30:19.719Z,61.40
2022-12-23T04:32:47.927Z,53.78
2022-12-23T04:35:16.267Z,63.53
2022-12-23T04:37:44.726Z,61.88
2022-12-23T04:40:13.171Z,64.00
2022-12-23T04:42:41.397Z,66.80
2022-12-23T04:45:10.132Z,70.30
2022-12-23T04:47:38.388Z,69.55
2022-12-23T04:50:08.116Z,66.32
2022-12-23T04:52:36.297Z,63.58
2022-12-23T04:55:07.362Z,69.22
2022-12-23T04:57:35.684Z,65.70
2022-12-23T05:00:05.325Z,72.10
2022-12-23T05:02:33.666Z,65.72
2022-12-23T05:05:01.968Z,66.72
2022-12-23T05:07:30.224Z,58.40
2022-12-23T05:10:03.707Z,64.20
2022-12-23T05:12:32.937Z,58.05
2022-12-23T05:15:01.386Z,61.65
2022-12-23T05:17:29.632Z,54.42
2022-12-23T05:19:58.063Z,51.13
2022-12-23T05:22:26.284Z,48.85
2022-12-23T05:24:54.531Z,50.55
2022-12-23T05:27:22.714Z,54.78
2022-12-23T05:29:50.912Z,41.75
2022-12-23T05:32:19.063Z,47.03
2022-12-23T05:34:47.305Z,38.97
2022-12-23T05:37:15.578Z,48.75
2022-12-23T05:39:43.771Z,39.33
2022-12-23T05:42:12.037Z,40.33
2022-12-23T05:44:40.260Z,45.08
2022-12-23T05:47:08.457Z,36.13
2022-12-23T05:49:36.618Z,35.15
2022-12-23T05:52:04.918Z,40.72
2022-12-23T05:54:33.129Z,34.17
2022-12-23T05:57:01.392Z,33.63
2022-12-23T05:59:31.642Z,39.83
2022-12-23T06:02:00.389Z,31.35
2022-12-23T06:04:30.100Z,37.17
2022-12-23T06:07:01.001Z,32.83
2022-12-23T06:09:32.783Z,33.65
2022-12-23T06:12:01.053Z,34.63
2022-12-23T06:14:29.691Z,39.28
2022-12-23T06:16:58.066Z,41.75
2022-12-23T06:19:27.284Z,41.45
2022-12-23T06:21:55.863Z,36.58
2022-12-23T06:24:28.118Z,33.10
2022-12-23T06:26:57.489Z,37.72
2022-12-23T06:29:26.040Z,34.97
2022-12-23T06:31:54.280Z,31.38
2022-12-23T06:34:22.701Z,35.15
2022-12-23T06:36:50.924Z,37.78
2022-12-23T06:39:19.157Z,30.98
2022-12-23T06:41:47.544Z,30.55
2022-12-23T06:44:15.922Z,35.83
2022-12-23T06:46:44.198Z,39.65
2022-12-23T06:49:13.616Z,38.20
2022-12-23T06:51:42.483Z,34.17
2022-12-23T06:54:12.087Z,34.13
2022-12-23T06:56:40.567Z,34.88
2022-12-23T06:59:08.776Z,35.60
2022-12-23T07:01:38.927Z,41.70
2022-12-23T07:04:07.619Z,38.13
2022-12-23T07:06:35.969Z,45.45
2022-12-23T07:09:04.295Z,43.40
2022-12-23T07:11:32.618Z,38.22
2022-12-23T07:14:00.831Z,32.70
2022-12-23T07:16:29.053Z,38.08
2022-12-23T07:18:57.344Z,35.03
2022-12-23T07:21:29.343Z,40.67
2022-12-23T07:23:58.247Z,29.87
2022-12-23T07:26:26.447Z,31.48
2022-12-23T07:28:54.693Z,32.70
2022-12-23T07:31:23.418Z,29.30
2022-12-23T07:33:51.754Z,23.33
2022-12-23T07:36:22.628Z,29.80
2022-12-23T07:38:51.853Z,31.15
2022-12-23T07:41:20.148Z,25.73
2022-12-23T07:43:48.417Z,25.55
2022-12-23T07:46:16.672Z,23.95
2022-12-23T07:48:47.713Z,27.58
2022-12-23T07:51:15.957Z,28.48
2022-12-23T07:53:44.113Z,30.92
2022-12-23T07:56:12.428Z,26.98
2022-12-23T07:58:40.618Z,27.30
2022-12-23T08:01:09.148Z,27.17
2022-12-23T08:03:37.888Z,27.00
2022-12-23T08:06:09.660Z,23.55
2022-12-23T08:08:38.823Z,27.17
2022-12-23T08:11:09.504Z,24.67
2022-12-23T08:13:40.772Z,27.52
2022-12-23T08:16:14.135Z,23.08
2022-12-23T08:18:42.865Z,24.85
2022-12-23T08:21:14.920Z,26.73
2022-12-23T08:23:44.006Z,25.88
2022-12-23T08:26:18.567Z,24.90
2022-12-23T08:28:47.009Z,26.23
2022-12-23T08:31:21.471Z,30.58
2022-12-23T08:33:52.894Z,22.90
2022-12-23T08:36:24.605Z,27.65
2022-12-23T08:38:56.520Z,29.02
2022-12-23T08:41:28.999Z,27.80
2022-12-23T08:43:58.116Z,34.60
2022-12-23T08:46:27.684Z,26.67
2022-12-23T08:48:56.339Z,32.25
2022-12-23T08:51:26.190Z,29.30
2022-12-23T08:54:00.847Z,35.42
2022-12-23T08:56:35.895Z,34.35
2022-12-23T08:59:05.480Z,34.25
2022-12-23T09:01:35.287Z,31.25
2022-12-23T09:04:06.269Z,35.33
2022-12-23T09:06:40.888Z,39.30
2022-12-23T09:09:11.769Z,32.20
2022-12-23T09:11:40.279Z,38.83
2022-12-23T09:14:10.265Z,36.85
2022-12-23T09:16:39.112Z,40.83
2022-12-23T09:19:07.935Z,43.65
2022-12-23T09:21:36.697Z,43.55
2022-12-23T09:24:05.409Z,44.65
2022-12-23T09:26:33.725Z,38.25
2022-12-23T09:29:03.379Z,36.97
2022-12-23T09:31:36.639Z,38.17
2022-12-23T09:34:10.988Z,37.17
2022-12-23T09:36:40.109Z,39.90
2022-12-23T09:39:10.323Z,35.40
2022-12-23T09:42:01.593Z,36.70
2022-12-23T09:44:43.133Z,43.83
2022-12-23T09:47:19.276Z,50.65
2022-12-23T09:49:58.917Z,45.80
2022-12-23T09:53:06.663Z,53.28
2022-12-23T09:55:46.895Z,51.38
2022-12-23T09:58:58.934Z,44.08
2022-12-23T10:01:45.498Z,53.00
2022-12-23T10:04:22.401Z,53.70
2022-12-23T10:07:14.840Z,70.05
2022-12-23T10:09:45.724Z,77.47
2022-12-23T10:12:39.505Z,79.63
2022-12-23T10:15:28.979Z,87.15
2022-12-23T10:18:03.709Z,81.47
2022-12-23T10:20:58.187Z,76.72
2022-12-23T10:23:37.641Z,89.03
2022-12-23T10:26:33.364Z,90.50
2022-12-23T10:29:26.452Z,90.65
2022-12-23T10:32:03.260Z,90.83
2022-12-23T10:35:07.544Z,77.45
2022-12-23T10:37:57.675Z,74.78
2022-12-23T10:40:46.126Z,78.78
2022-12-23T10:43:46.320Z,71.85
2022-12-23T10:46:39.510Z,72.13
2022-12-23T10:49:34.372Z,65.88
2022-12-23T10:52:14.592Z,67.25
2022-12-23T10:54:46.629Z,65.03
2022-12-23T10:57:17.370Z,61.90
2022-12-23T10:59:49.010Z,55.97
2022-12-23T11:02:35.951Z,61.75
2022-12-23T11:05:09.186Z,57.58
2022-12-23T11:07:45.896Z,65.72
2022-12-23T11:10:22.281Z,64.68
2022-12-23T11:12:53.233Z,56.35
2022-12-23T11:15:41.440Z,59.47
2022-12-23T11:18:12.698Z,70.07
2022-12-23T11:20:43.504Z,63.88
2022-12-23T11:23:27.286Z,58.17
2022-12-23T11:26:04.915Z,60.78
2022-12-23T11:28:36.327Z,72.45
2022-12-23T11:31:11.817Z,64.25
2022-12-23T11:33:46.399Z,54.10
2022-12-23T11:36:24.115Z,63.05
2022-12-23T11:38:52.372Z,63.72
2022-12-23T11:41:27.912Z,61.30
2022-12-23T11:44:00.017Z,61.95
2022-12-23T11:46:35.028Z,64.47
2022-12-23T11:49:33.914Z,59.80
2022-12-23T11:52:10.892Z,60.50
2022-12-23T11:54:40.014Z,60.72
2022-12-23T11:57:17.296Z,65.15
2022-12-23T11:59:51.449Z,55.78
2022-12-23T12:02:31.097Z,61.83
2022-12-23T12:05:27.520Z,54.17
2022-12-23T12:08:03.650Z,56.50
2022-12-23T12:10:35.253Z,58.95
2022-12-23T12:13:09.151Z,62.72
2022-12-23T12:16:14.763Z,54.47
2022-12-23T12:18:50.469Z,51.47
2022-12-23T12:21:27.025Z,49.03
2022-12-23T12:24:19.952Z,57.35
2022-12-23T12:27:03.844Z,43.92
2022-12-23T12:30:08.413Z,46.65
2022-12-23T12:33:28.048Z,41.50
2022-12-23T12:36:07.785Z,40.38
2022-12-23T12:38:39.109Z,43.75
2022-12-23T12:41:46.719Z,42.78
2022-12-23T12:44:36.095Z,43.78
2022-12-23T12:47:44.848Z,44.67
2022-12-23T12:50:15.249Z,44.20
2022-12-23T12:52:44.020Z,49.13
2022-12-23T12:55:15.336Z,50.05
2022-12-23T12:57:43.609Z,47.22
2022-12-23T13:00:17.937Z,52.97
2022-12-23T13:03:11.352Z,49.63
2022-12-23T13:06:01.516Z,43.65
2022-12-23T13:08:47.663Z,48.95
2022-12-23T13:12:00.011Z,53.85
2022-12-23T13:14:28.123Z,54.58
2022-12-23T13:17:15.317Z,50.67
2022-12-23T13:20:07.401Z,47.17
2022-12-23T13:22:36.374Z,46.83
2022-12-23T13:25:42.429Z,52.67
2022-12-23T13:28:47.216Z,51.20
2022-12-23T13:31:32.312Z,48.17
2022-12-23T13:34:23.951Z,57.08
2022-12-23T13:37:17.113Z,50.17
2022-12-23T13:39:50.917Z,51.50
2022-12-23T13:42:31.390Z,45.83
2022-12-23T13:45:01.690Z,45.10
2022-12-23T13:47:44.637Z,45.20
2022-12-23T13:50:29.356Z,45.65
2022-12-23T13:53:41.560Z,47.00
2022-12-23T13:56:14.830Z,51.80
2022-12-23T13:58:47.077Z,46.90
2022-12-23T14:01:42.629Z,52.28
2022-12-23T14:04:29.660Z,50.10
2022-12-23T14:07:00.723Z,47.28
2022-12-23T14:09:38.539Z,47.63
2022-12-23T14:12:19.879Z,50.35
2022-12-23T14:15:16.704Z,50.05
2022-12-23T14:18:11.109Z,44.25
2022-12-23T14:20:43.181Z,46.45
2022-12-23T14:23:27.918Z,46.45
2022-12-23T14:26:33.729Z,48.95
2022-12-23T14:29:38.082Z,49.53
2022-12-23T14:32:27.167Z,52.95
2022-12-23T14:35:24.938Z,51.85
2022-12-23T14:38:14.979Z,50.03
2022-12-23T14:40:43.259Z,58.17
2022-12-23T14:43:26.425Z,71.18
2022-12-23T14:46:00.784Z,57.50
2022-12-23T14:48:47.927Z,62.40
2022-12-23T14:51:32.863Z,65.60
2022-12-23T14:54:01.050Z,72.28
2022-12-23T14:56:41.507Z,71.22
2022-12-23T14:59:37.608Z,70.32
2022-12-23T15:02:29.353Z,76.57
2022-12-23T15:04:59.291Z,69.13
2022-12-23T15:07:37.700Z,76.55
2022-12-23T15:10:21.761Z,66.82
2022-12-23T15:12:55.905Z,74.38
2022-12-23T15:15:31.194Z,76.57
2022-12-23T15:18:04.309Z,73.85
2022-12-23T15:20:35.248Z,77.30
2022-12-23T15:23:11.766Z,74.72
2022-12-23T15:25:49.018Z,79.63
2022-12-23T15:28:21.727Z,74.82
2022-12-23T15:30:54.689Z,81.90
2022-12-23T15:36:31.440Z,83.47
2022-12-23T15:39:01.792Z,89.57
2022-12-23T15:41:30.191Z,83.45
2022-12-23T15:44:01.626Z,77.68
2022-12-23T15:46:32.683Z,84.18
2022-12-23T15:49:01.935Z,78.65
2022-12-23T15:52:06.567Z,78.60
2022-12-23T15:54:34.743Z,80.10
2022-12-23T15:57:04.703Z,93.05
2022-12-23T15:59:37.452Z,82.65
2022-12-23T16:02:59.766Z,83.75
2022-12-23T16:05:37.750Z,81.47
2022-12-23T16:08:19.347Z,90.47
2022-12-23T16:11:05.537Z,84.93
2022-12-23T16:13:34.283Z,84.40
2022-12-23T16:16:29.798Z,83.88
2022-12-23T16:18:58.134Z,87.80
2022-12-23T16:21:36.546Z,88.35
2022-12-23T16:24:09.574Z,78.15
2022-12-23T16:26:42.910Z,83.07
2022-12-23T16:31:44.244Z,82.35
2022-12-23T16:34:16.566Z,83.68
2022-12-23T16:36:44.789Z,89.68
2022-12-23T16:39:17.940Z,73.32
2022-12-23T16:41:46.140Z,75.00
2022-12-23T16:44:14.843Z,77.18
2022-12-23T16:46:49.487Z,71.40
2022-12-23T16:49:20.304Z,82.60
2022-12-23T16:51:48.843Z,82.53
2022-12-23T16:54:20.186Z,80.13
2022-12-23T16:56:48.621Z,82.28
2022-12-23T16:59:17.414Z,86.93
2022-12-23T17:01:47.541Z,83.22
2022-12-23T17:04:16.339Z,77.18
2022-12-23T17:06:46.650Z,72.53
2022-12-23T17:09:15.052Z,70.93
2022-12-23T17:11:52.795Z,78.70
2022-12-23T17:14:24.182Z,81.80
2022-12-23T17:16:52.698Z,89.53
2022-12-23T17:19:29.341Z,86.38
2022-12-23T17:22:03.168Z,88.25
2022-12-23T17:24:31.685Z,83.05
2022-12-23T17:26:59.922Z,83.07
2022-12-23T17:29:28.816Z,91.20
2022-12-23T17:31:57.149Z,93.03
2022-12-23T17:34:25.799Z,94.70
2022-12-23T17:36:54.282Z,92.40
2022-12-23T17:39:22.829Z,87.90
2022-12-23T17:41:51.433Z,86.93
2022-12-23T17:44:19.937Z,89.22
2022-12-23T17:46:48.546Z,91.65
2022-12-23T17:49:16.806Z,89.32
2022-12-23T17:51:45.079Z,88.45
2022-12-23T17:54:26.245Z,89.97
2022-12-23T17:56:54.627Z,90.57
2022-12-23T17:59:22.934Z,92.28
2022-12-23T18:01:51.389Z,86.95
2022-12-23T18:04:19.737Z,90.20
2022-12-23T18:06:47.912Z,85.40
2022-12-23T18:09:16.753Z,90.05
2022-12-23T18:11:46.741Z,82.65
2022-12-23T18:14:27.614Z,92.95
2022-12-23T18:16:55.912Z,93.65
2022-12-23T18:19:24.358Z,92.82
2022-12-23T18:21:52.882Z,87.80
2022-12-23T18:24:21.128Z,92.20
2022-12-23T18:26:49.306Z,84.57
2022-12-23T18:29:17.600Z,82.60
2022-12-23T18:31:51.495Z,79.57
2022-12-23T18:34:21.151Z,82.32
2022-12-23T18:36:51.557Z,82.30
2022-12-23T18:39:20.619Z,79.82
2022-12-23T18:41:48.983Z,87.05
2022-12-23T18:44:21.719Z,83.20
2022-12-23T18:46:50.685Z,76.00
2022-12-23T18:49:19.068Z,81.18
2022-12-23T18:51:47.516Z,77.72
2022-12-23T18:54:16.808Z,83.68
2022-12-23T18:56:45.629Z,76.47
2022-12-23T18:59:24.223Z,78.82
2022-12-23T19:01:57.993Z,82.75
2022-12-23T19:04:27.378Z,83.32
2022-12-23T19:06:59.516Z,91.85
2022-12-23T19:09:28.391Z,86.60
2022-12-23T19:11:57.519Z,88.55
2022-12-23T19:14:25.767Z,93.10
2022-12-23T19:16:54.231Z,90.97
2022-12-23T19:19:22.664Z,82.82
2022-12-23T19:21:53.741Z,90.55
2022-12-23T19:24:21.924Z,93.53
2022-12-23T19:26:50.166Z,81.00
2022-12-23T19:29:18.402Z,86.95
2022-12-23T19:31:46.653Z,83.13
2022-12-23T19:34:15.956Z,85.47
2022-12-23T19:36:44.679Z,88.45
2022-12-23T19:39:16.689Z,113.80
2022-12-23T19:41:45.937Z,97.13
2022-12-23T19:44:14.597Z,100.72
2022-12-23T19:46:43.104Z,99.80
2022-12-23T19:49:29.976Z,86.45
2022-12-23T19:51:58.270Z,86.47
2022-12-23T19:54:26.604Z,84.50
2022-12-23T19:56:54.789Z,93.50
2022-12-23T19:59:23.391Z,83.38
2022-12-23T20:01:51.720Z,91.72
2022-12-23T20:04:24.635Z,99.85
2022-12-23T20:06:52.969Z,88.30
2022-12-23T20:09:21.228Z,90.30
2022-12-23T20:11:50.104Z,91.97
2022-12-23T20:14:21.621Z,85.13
2022-12-23T20:16:50.595Z,80.78
2022-12-23T20:19:19.086Z,83.45
2022-12-23T20:21:47.611Z,85.68
2022-12-23T20:24:16.273Z,78.65
2022-12-23T20:26:44.606Z,78.53
2022-12-23T20:29:13.077Z,84.28
2022-12-23T20:31:41.431Z,89.95
2022-12-23T20:34:15.422Z,82.13
2022-12-23T20:36:44.095Z,77.57
2022-12-23T20:39:12.668Z,79.45
2022-12-23T20:41:40.938Z,89.72
2022-12-23T20:44:34.011Z,89.05
2022-12-23T20:46:58.323Z,91.88
2022-12-23T20:49:26.914Z,88.72
2022-12-23T20:51:55.104Z,85.85
2022-12-23T20:54:29.761Z,94.40
2022-12-23T20:57:03.918Z,96.80
2022-12-23T20:59:33.158Z,92.63
2022-12-23T21:02:01.728Z,90.30
2022-12-23T21:04:30.010Z,88.47
2022-12-23T21:06:58.204Z,89.53
2022-12-23T21:09:26.380Z,103.50
2022-12-23T21:11:54.587Z,82.93
2022-12-23T21:14:22.850Z,95.93
2022-12-23T21:16:51.219Z,100.57
2022-12-23T21:19:25.301Z,88.03
2022-12-23T21:21:53.926Z,91.15
2022-12-23T21:24:22.209Z,83.22
2022-12-23T21:26:56.389Z,82.20
2022-12-23T21:29:26.007Z,90.88
2022-12-23T21:31:55.211Z,95.72
2022-12-23T21:34:23.777Z,86.47
2022-12-23T21:36:52.048Z,91.47
2022-12-23T21:39:23.207Z,96.90
2022-12-23T21:41:52.739Z,93.00
2022-12-23T21:44:20.945Z,102.82
2022-12-23T21:46:51.176Z,98.15
2022-12-23T21:49:21.526Z,100.70
2022-12-23T21:51:49.985Z,87.28
2022-12-23T21:54:18.369Z,89.47
2022-12-23T21:56:47.007Z,92.25
2022-12-23T21:59:15.768Z,92.65
2022-12-23T22:01:44.426Z,88.97
2022-12-23T22:04:12.962Z,90.68
2022-12-23T22:06:44.010Z,88.30
2022-12-23T22:09:17.341Z,89.80
2022-12-23T22:11:47.079Z,85.70
2022-12-23T22:14:17.629Z,88.47
2022-12-23T22:16:46.032Z,97.63
2022-12-23T22:19:14.699Z,89.13
2022-12-23T22:21:43.018Z,90.97
2022-12-23T22:24:11.532Z,83.70
2022-12-23T22:26:40.615Z,84.20
2022-12-23T22:29:10.628Z,86.68
2022-12-23T22:31:48.534Z,86.90
2022-12-23T22:34:21.689Z,91.80
2022-12-23T22:36:50.399Z,88.88
2022-12-23T22:39:21.908Z,88.50
2022-12-23T22:41:51.557Z,86.13
2022-12-23T22:44:20.716Z,89.38
2022-12-23T22:46:49.271Z,81.47
2022-12-23T22:49:17.933Z,82.80
2022-12-23T22:51:46.316Z,88.40
2022-12-23T22:54:14.558Z,81.68
2022-12-23T22:56:42.936Z,85.95
2022-12-23T22:59:21.082Z,81.30
2022-12-23T23:01:53.830Z,83.13
2022-12-23T23:04:22.581Z,70.90
2022-12-23T23:06:51.000Z,79.40
2022-12-23T23:09:20.927Z,77.03
2022-12-23T23:11:50.194Z,83.93
2022-12-23T23:14:18.805Z,86.85
2022-12-23T23:16:47.138Z,91.18
2022-12-23T23:19:16.472Z,76.25
2022-12-23T23:21:44.776Z,81.53
2022-12-23T23:24:13.962Z,81.88
2022-12-23T23:26:42.166Z,85.75
2022-12-23T23:29:12.978Z,77.97
2022-12-23T23:31:43.222Z,79.90
2022-12-23T23:34:12.650Z,84.13
2022-12-23T23:36:41.076Z,82.50
2022-12-23T23:39:11.008Z,81.82
2022-12-23T23:41:40.970Z,81.72
2022-12-23T23:44:09.715Z,78.20
2022-12-23T23:46:39.383Z,81.18
2022-12-23T23:49:07.596Z,78.40
2022-12-23T23:51:35.846Z,84.07
2022-12-23T23:54:04.069Z,79.85
2022-12-23T23:56:38.227Z,81.93
2022-12-23T23:59:08.979Z,79.55
